Terminal Aerodrome Forecast
Issued by NWS

Home | Current Version | Previous Version | Text Only | Print | Product List | Glossary On
Versions: 1 2 3 4 5 6 7 8 9 10 11 12 13 14 15 16 17 18 19 20 21 22 23
000
FTUS41 KGYX 161128
TAFLEB
TAF
KLEB 161128Z 1612/1712 00000KT 6SM -SHRA BR SCT050 OVC070
      TEMPO 1612/1613 3SM -SHRA BR SCT002
     FM161300 VRB03KT P6SM -SHRA BKN035 OVC050
     FM161700 30003KT P6SM BKN050 OVC100=

USA.gov is the U.S. government's official web portal to all federal, state and local government web resources and services.